Pagina principală
METAR-TAF:

METAR-TAF

Aeroporturi :

Municipal_Airport

Cushing, Oklahoma, Statele Unite ale Americii

Latitudine: 35-56-59N, longitudine: 096-46-22W, elevație: 279 m

Observații meteo curente

Raportul a fost făcut în urmă cu 34 de minute, la 21:15 UTC
Vânt 8 kt de la Sud-vest cu rafale de până la 16 kt
Temperatură 36°C
Umiditate 39%
Presiune 1013 hPa
Vizibilitate: 16.1 km
Nori împrăștiați la o înălțime de 5000 picior

METAR: KCUH 222115Z AUTO 22008G16KT 10SM SCT050 36/20 A2992 RMK AO2 T03550201

Ora: 16:49 (21:49 UTC)


TAF: lipsă

Observații și prognoze meteo pentru peste 4.000 de aeroporturi (rapoarte METAR și TAF).

Stațiile disponibile sunt reprezentate pe hartă prin puncte galbene și roșii.

Țineți indicatorul mouse-ului pe punctul dorit pentru a vedea denumirea stației.

Apoi, faceți clic pentru a vedea observațiile și prognozele meteorologice.

Pentru a schimba harta: Pentru mărire, faceți clic pe butoanele verzi cu cruce neagră; pentru micșorare, pe butonul verde cu o liniuță; pentru hărți învecinate, pe săgețile verzi.


METAR-TAF: